Time;durP1;ratioP1;P1;durP2;ratioP2;P2;SDS_P1;SDS_P2;PMS_P1;PMS_P2;Temp;Humidity;BMP_temperature;BMP_pressure;BME280_temperature;BME280_humidity;BME280_pressure;Samples;Min_cycle;Max_cycle;Signal;HPM_P1;HPM_P2
2024/01/25 00:01:52;;;;;;;20.83;5.93;;;6.50;99.90;;;;;;4899412;28;20057;-58
2024/01/25 00:04:17;;;;;;;27.83;5.97;;;6.50;99.90;;;;;;4900362;28;21378;-59
2024/01/25 00:06:43;;;;;;;25.92;5.25;;;6.40;99.90;;;;;;4958898;28;20042;-59
2024/01/25 00:09:08;;;;;;;30.60;6.45;;;6.40;99.90;;;;;;4939365;28;20041;-58
2024/01/25 00:11:35;;;;;;;18.92;5.32;;;6.40;99.90;;;;;;4899956;28;20030;-59
2024/01/25 00:14:00;;;;;;;23.65;4.90;;;6.40;99.90;;;;;;4899490;28;20049;-57
2024/01/25 00:16:27;;;;;;;25.83;4.82;;;6.40;99.90;;;;;;4889847;28;21383;-56
2024/01/25 00:18:53;;;;;;;27.60;5.28;;;6.50;99.90;;;;;;4955456;28;20471;-59
2024/01/25 00:21:19;;;;;;;25.55;6.47;;;6.50;99.90;;;;;;4925845;28;20026;-60
2024/01/25 00:23:44;;;;;;;28.65;5.97;;;6.50;99.90;;;;;;4909523;28;20596;-57
2024/01/25 00:26:10;;;;;;;39.92;6.25;;;6.50;99.90;;;;;;4905188;28;20740;-59
2024/01/25 00:28:35;;;;;;;24.80;5.93;;;6.50;99.90;;;;;;4883641;28;20056;-57
2024/01/25 00:31:01;;;;;;;21.77;5.75;;;6.60;99.90;;;;;;4925386;28;20117;-60
2024/01/25 00:33:26;;;;;;;26.27;5.40;;;6.60;99.90;;;;;;4919324;28;20394;-61
2024/01/25 00:35:52;;;;;;;34.47;6.03;;;6.60;99.90;;;;;;4933152;28;20056;-58
2024/01/25 00:38:18;;;;;;;24.35;6.22;;;6.60;99.90;;;;;;4893166;28;20116;-59
2024/01/25 00:40:44;;;;;;;30.95;6.05;;;6.60;99.90;;;;;;4953630;28;20030;-58
2024/01/25 00:43:10;;;;;;;34.58;6.47;;;6.60;99.90;;;;;;4942819;28;20041;-58
2024/01/25 00:45:35;;;;;;;26.88;5.78;;;6.60;99.90;;;;;;4966103;28;20112;-58
2024/01/25 00:48:01;;;;;;;18.60;5.80;;;6.60;99.90;;;;;;4983815;28;20052;-58
2024/01/25 00:50:27;;;;;;;21.00;5.53;;;6.60;99.90;;;;;;4972255;28;20026;-59
2024/01/25 00:52:53;;;;;;;20.15;5.10;;;6.60;99.90;;;;;;4952521;28;20034;-59
2024/01/25 00:55:19;;;;;;;23.35;5.57;;;6.60;99.90;;;;;;4947809;28;20033;-57
2024/01/25 00:57:45;;;;;;;25.73;5.40;;;6.60;99.90;;;;;;4937860;28;21448;-57
2024/01/25 01:00:12;;;;;;;22.00;4.95;;;6.60;99.90;;;;;;4984557;28;20032;-59
2024/01/25 01:02:43;;;;;;;27.48;5.15;;;6.60;99.90;;;;;;4945967;28;20116;-58
2024/01/25 01:05:10;;;;;;;24.45;5.32;;;6.60;99.90;;;;;;4944499;28;20022;-59
2024/01/25 01:07:36;;;;;;;25.00;6.65;;;6.60;99.90;;;;;;4966348;28;20128;-56
2024/01/25 01:10:01;;;;;;;28.35;5.57;;;6.60;99.90;;;;;;4937265;28;20564;-60
2024/01/25 01:12:27;;;;;;;24.88;5.47;;;6.60;99.90;;;;;;4940958;28;20490;-60
2024/01/25 01:14:53;;;;;;;22.67;5.38;;;6.50;99.90;;;;;;4979667;28;20049;-59
2024/01/25 01:17:18;;;;;;;19.27;5.82;;;6.60;99.90;;;;;;4959347;28;21335;-58
2024/01/25 01:19:44;;;;;;;21.67;5.63;;;6.50;99.90;;;;;;4946766;28;20137;-56
2024/01/25 01:22:10;;;;;;;28.52;6.28;;;6.50;99.90;;;;;;4932812;28;20026;-58
2024/01/25 01:24:35;;;;;;;21.20;4.07;;;6.50;99.90;;;;;;4949338;28;20076;-59
2024/01/25 01:27:01;;;;;;;26.92;6.18;;;6.50;99.90;;;;;;4975098;28;20136;-58
2024/01/25 01:29:26;;;;;;;26.48;5.07;;;6.50;99.90;;;;;;4961720;28;20034;-55
2024/01/25 01:31:52;;;;;;;25.42;4.85;;;6.50;99.90;;;;;;4959508;28;20041;-58
2024/01/25 01:34:18;;;;;;;28.08;5.78;;;6.50;99.90;;;;;;4932994;28;20038;-59
2024/01/25 01:36:44;;;;;;;22.85;5.13;;;6.50;99.90;;;;;;4931800;28;20048;-57
2024/01/25 01:39:09;;;;;;;21.80;5.53;;;6.50;99.90;;;;;;4980481;28;20041;-58
2024/01/25 01:41:35;;;;;;;31.25;5.45;;;6.50;99.90;;;;;;4927553;28;20392;-56
2024/01/25 01:44:01;;;;;;;17.50;5.35;;;6.50;99.90;;;;;;4950377;28;20117;-59
2024/01/25 01:46:39;;;;;;;16.02;4.45;;;6.50;99.90;;;;;;4940633;28;20037;-57
2024/01/25 01:49:10;;;;;;;24.90;5.53;;;6.50;99.90;;;;;;4926610;28;20029;-57
2024/01/25 01:51:37;;;;;;;28.73;5.20;;;6.50;99.90;;;;;;4939734;28;20044;-55
2024/01/25 01:54:05;;;;;;;29.17;5.93;;;6.50;99.90;;;;;;4975153;28;20030;-58
2024/01/25 01:56:31;;;;;;;22.42;4.97;;;6.50;99.90;;;;;;4938371;28;20030;-52
2024/01/25 01:58:59;;;;;;;29.85;6.30;;;6.50;99.90;;;;;;4947051;28;20029;-59
2024/01/25 02:01:25;;;;;;;22.02;4.82;;;6.50;99.90;;;;;;4957543;28;20026;-54
2024/01/25 02:03:51;;;;;;;22.27;4.78;;;6.50;99.90;;;;;;4919581;28;20092;-58
2024/01/25 02:06:16;;;;;;;35.42;5.65;;;6.60;99.90;;;;;;4967929;28;20120;-58
2024/01/25 02:08:42;;;;;;;21.77;4.57;;;6.50;99.90;;;;;;4914556;28;20040;-57
2024/01/25 02:11:10;;;;;;;21.10;4.82;;;6.50;99.90;;;;;;4917662;28;20061;-58
2024/01/25 02:13:36;;;;;;;22.15;5.13;;;6.50;99.90;;;;;;4968107;28;20028;-57
2024/01/25 02:16:01;;;;;;;34.72;5.82;;;6.50;99.90;;;;;;4912784;28;20033;-59
2024/01/25 02:18:27;;;;;;;28.63;5.82;;;6.50;99.90;;;;;;4933980;28;20022;-61
2024/01/25 02:20:53;;;;;;;22.25;5.55;;;6.50;99.90;;;;;;4962311;28;20045;-57
2024/01/25 02:23:18;;;;;;;23.35;5.40;;;6.60;99.90;;;;;;4927666;28;21410;-59
2024/01/25 02:25:45;;;;;;;26.08;5.90;;;6.50;99.90;;;;;;4950674;28;20506;-58
2024/01/25 02:28:10;;;;;;;18.85;5.03;;;6.50;99.90;;;;;;4915415;28;20041;-58
2024/01/25 02:30:36;;;;;;;25.58;5.40;;;6.50;99.90;;;;;;4957106;28;20037;-58
2024/01/25 02:33:01;;;;;;;23.33;5.07;;;6.60;99.90;;;;;;4976575;28;20038;-60
2024/01/25 02:35:27;;;;;;;30.88;5.65;;;6.50;99.90;;;;;;4916609;28;20039;-57
2024/01/25 02:37:53;;;;;;;24.88;4.60;;;6.50;99.90;;;;;;4960215;28;20033;-56
2024/01/25 02:40:18;;;;;;;19.45;5.13;;;6.50;99.90;;;;;;4914335;28;20026;-57
2024/01/25 02:42:44;;;;;;;27.35;5.50;;;6.50;99.90;;;;;;4934817;28;20121;-58
2024/01/25 02:45:10;;;;;;;21.35;4.57;;;6.50;99.90;;;;;;4967575;28;20115;-57
2024/01/25 02:47:35;;;;;;;18.73;5.05;;;6.50;99.90;;;;;;4954852;28;20117;-57
2024/01/25 02:50:01;;;;;;;22.77;4.82;;;6.50;99.90;;;;;;4917249;28;20030;-60
2024/01/25 02:52:26;;;;;;;27.45;5.53;;;6.40;99.90;;;;;;4944786;28;20022;-58
2024/01/25 02:54:52;;;;;;;29.63;5.75;;;6.40;99.90;;;;;;4906700;28;20042;-57
2024/01/25 02:57:18;;;;;;;28.00;5.95;;;6.40;99.90;;;;;;4963656;28;20029;-59
2024/01/25 02:59:44;;;;;;;20.55;4.82;;;6.40;99.90;;;;;;4914007;28;20034;-57
2024/01/25 03:02:09;;;;;;;20.35;5.28;;;6.40;99.90;;;;;;4919720;28;20026;-58
2024/01/25 03:04:35;;;;;;;26.63;4.72;;;6.40;99.90;;;;;;4952431;28;20104;-58
2024/01/25 03:07:00;;;;;;;23.80;4.70;;;6.40;99.90;;;;;;4962455;28;20030;-56
2024/01/25 03:09:26;;;;;;;26.25;5.60;;;6.40;99.90;;;;;;4938733;28;20778;-57
2024/01/25 03:11:51;;;;;;;22.83;4.88;;;6.40;99.90;;;;;;4964404;28;20029;-57
2024/01/25 03:14:17;;;;;;;28.67;4.70;;;6.40;99.90;;;;;;4960758;28;21306;-59
2024/01/25 03:16:43;;;;;;;17.45;4.25;;;6.40;99.90;;;;;;4975222;28;20037;-57
2024/01/25 03:19:10;;;;;;;28.60;5.93;;;6.30;99.90;;;;;;4962566;28;20018;-58
2024/01/25 03:21:36;;;;;;;16.13;4.60;;;6.40;99.90;;;;;;4960891;28;20125;-58
2024/01/25 03:24:01;;;;;;;23.10;4.70;;;6.40;99.90;;;;;;4958206;28;20112;-58
2024/01/25 03:26:28;;;;;;;17.83;4.68;;;6.40;99.90;;;;;;4956327;28;20053;-58
2024/01/25 03:28:53;;;;;;;25.23;5.63;;;6.40;99.90;;;;;;4986279;28;20034;-59
2024/01/25 03:31:19;;;;;;;20.73;4.97;;;6.40;99.90;;;;;;4944558;28;20046;-59
2024/01/25 03:33:45;;;;;;;24.10;5.00;;;6.40;99.90;;;;;;4948249;28;20034;-57
2024/01/25 03:36:13;;;;;;;23.02;4.15;;;6.40;99.90;;;;;;4939419;28;20030;-57
2024/01/25 03:38:39;;;;;;;23.00;5.22;;;6.40;99.90;;;;;;4953765;28;20509;-60
2024/01/25 03:41:04;;;;;;;25.63;5.68;;;6.40;99.90;;;;;;4946682;28;20062;-60
2024/01/25 03:43:30;;;;;;;26.52;5.07;;;6.30;99.90;;;;;;4978337;28;20028;-57
2024/01/25 03:45:55;;;;;;;22.15;4.88;;;6.30;99.90;;;;;;4951955;28;20065;-58
2024/01/25 03:48:21;;;;;;;23.08;4.88;;;6.30;99.90;;;;;;4922758;28;20119;-58
2024/01/25 03:50:47;;;;;;;21.88;5.63;;;6.30;99.90;;;;;;4922725;28;20081;-56
2024/01/25 03:53:13;;;;;;;19.13;4.32;;;6.30;99.90;;;;;;4946368;28;20545;-56
2024/01/25 03:55:38;;;;;;;25.35;4.63;;;6.30;99.90;;;;;;4971692;28;22208;-57
2024/01/25 03:58:04;;;;;;;23.13;4.97;;;6.30;99.90;;;;;;4943915;28;20079;-58
2024/01/25 04:00:30;;;;;;;25.02;5.13;;;6.30;99.90;;;;;;4930351;28;20034;-58
2024/01/25 04:02:55;;;;;;;22.67;4.10;;;6.40;99.90;;;;;;4936752;28;20034;-58
2024/01/25 04:05:21;;;;;;;18.80;4.57;;;6.30;99.90;;;;;;4942373;28;22523;-58
2024/01/25 04:07:46;;;;;;;18.55;5.18;;;6.40;99.90;;;;;;4980965;28;20049;-57
2024/01/25 04:10:12;;;;;;;15.93;4.40;;;6.40;99.90;;;;;;4949062;28;20042;-56
2024/01/25 04:12:39;;;;;;;28.00;4.43;;;6.40;99.90;;;;;;4943799;28;20030;-57
2024/01/25 04:15:05;;;;;;;23.45;5.38;;;6.40;99.90;;;;;;4930589;28;20077;-58
2024/01/25 04:17:30;;;;;;;22.30;6.00;;;6.30;99.90;;;;;;4938848;28;20021;-57
2024/01/25 04:19:56;;;;;;;20.02;4.65;;;6.30;99.90;;;;;;4970355;28;20040;-57
2024/01/25 04:22:22;;;;;;;26.38;5.13;;;6.30;99.90;;;;;;4931783;28;20054;-57
2024/01/25 04:24:49;;;;;;;23.05;5.20;;;6.30;99.90;;;;;;4954008;28;20783;-56
2024/01/25 04:27:15;;;;;;;24.33;5.00;;;6.30;99.90;;;;;;4937769;28;20402;-55
2024/01/25 04:29:44;;;;;;;25.25;5.38;;;6.30;99.90;;;;;;4932445;28;20057;-55
2024/01/25 04:32:09;;;;;;;21.40;4.60;;;6.30;99.90;;;;;;4932572;28;20069;-59
2024/01/25 04:34:35;;;;;;;22.83;5.40;;;6.30;99.90;;;;;;4976228;28;20192;-53
2024/01/25 04:37:01;;;;;;;23.75;5.70;;;6.20;99.90;;;;;;4957453;28;20030;-56
2024/01/25 04:39:27;;;;;;;17.42;4.53;;;6.20;99.90;;;;;;4930255;28;20088;-57
2024/01/25 04:41:53;;;;;;;28.48;6.15;;;6.20;99.90;;;;;;4916635;28;20038;-58
2024/01/25 04:44:18;;;;;;;26.02;5.55;;;6.20;99.90;;;;;;4931626;28;22161;-57
2024/01/25 04:46:44;;;;;;;25.90;5.50;;;6.20;99.90;;;;;;4974101;28;20105;-54
2024/01/25 04:49:09;;;;;;;14.02;4.63;;;6.20;99.90;;;;;;4944818;28;20064;-55
2024/01/25 04:51:35;;;;;;;25.70;5.07;;;6.20;99.90;;;;;;4932570;28;20053;-57
2024/01/25 04:54:01;;;;;;;20.15;4.70;;;6.20;99.90;;;;;;4923579;28;20215;-57
2024/01/25 04:56:26;;;;;;;26.75;4.75;;;6.20;99.90;;;;;;4932264;28;20964;-56
2024/01/25 04:58:52;;;;;;;28.25;4.70;;;6.20;99.90;;;;;;4963120;28;20084;-57
2024/01/25 05:01:17;;;;;;;21.90;4.50;;;6.20;99.90;;;;;;4949949;28;20417;-58
2024/01/25 05:03:43;;;;;;;32.28;6.13;;;6.20;99.90;;;;;;4922088;28;20502;-57
2024/01/25 05:06:08;;;;;;;27.48;5.05;;;6.20;99.90;;;;;;4911569;28;20030;-56
2024/01/25 05:08:34;;;;;;;15.05;4.22;;;6.20;99.90;;;;;;4922242;28;20041;-58
2024/01/25 05:11:00;;;;;;;17.70;5.18;;;6.20;99.90;;;;;;4950594;28;20040;-60
2024/01/25 05:13:25;;;;;;;20.85;5.05;;;6.20;99.90;;;;;;4915592;28;20034;-57
2024/01/25 05:15:51;;;;;;;30.75;5.00;;;6.20;99.90;;;;;;4940078;28;20127;-56
2024/01/25 05:18:17;;;;;;;36.67;6.72;;;6.10;99.90;;;;;;4898613;28;20076;-57
2024/01/25 05:20:42;;;;;;;20.42;4.53;;;6.20;99.90;;;;;;4903812;28;20029;-59
2024/01/25 05:23:08;;;;;;;23.95;5.22;;;6.10;99.90;;;;;;4930962;28;20050;-59
2024/01/25 05:25:33;;;;;;;27.17;4.47;;;6.10;99.90;;;;;;4963119;28;20037;-57
2024/01/25 05:27:59;;;;;;;29.25;5.40;;;6.10;99.90;;;;;;4946407;28;20040;-56
2024/01/25 05:30:25;;;;;;;20.00;3.35;;;6.20;99.90;;;;;;4917290;28;20054;-56
2024/01/25 05:32:53;;;;;;;25.80;4.90;;;6.10;99.90;;;;;;4916164;28;20034;-57
2024/01/25 05:35:18;;;;;;;24.52;4.82;;;6.10;99.90;;;;;;4911403;28;21440;-58
2024/01/25 05:37:44;;;;;;;19.27;4.75;;;6.10;99.90;;;;;;4965938;28;20437;-58
2024/01/25 05:40:10;;;;;;;22.65;5.10;;;6.10;99.90;;;;;;4945476;28;20121;-58
2024/01/25 05:42:38;;;;;;;14.77;3.85;;;6.10;99.90;;;;;;4911994;28;20105;-57
2024/01/25 05:45:05;;;;;;;19.17;4.97;;;6.10;99.90;;;;;;4912089;28;20026;-56
2024/01/25 05:47:30;;;;;;;20.33;4.97;;;6.10;99.90;;;;;;4903595;28;21650;-58
2024/01/25 05:49:56;;;;;;;21.58;4.72;;;6.10;99.90;;;;;;4960641;28;20442;-58
2024/01/25 05:52:23;;;;;;;23.75;4.47;;;6.20;99.90;;;;;;4912598;28;20065;-60
2024/01/25 05:54:49;;;;;;;19.52;3.95;;;6.10;99.90;;;;;;4941011;28;20029;-57
2024/01/25 05:57:15;;;;;;;23.17;4.70;;;6.10;99.90;;;;;;4905575;28;20026;-57
2024/01/25 05:59:41;;;;;;;21.73;4.68;;;6.10;99.90;;;;;;4902401;28;20022;-58
2024/01/25 06:02:08;;;;;;;17.30;4.22;;;6.10;99.90;;;;;;4921556;28;20072;-59
2024/01/25 06:04:34;;;;;;;25.80;4.60;;;6.10;99.90;;;;;;4954368;28;20515;-57
2024/01/25 06:06:59;;;;;;;20.92;4.78;;;6.10;99.90;;;;;;4940793;28;21601;-57
2024/01/25 06:09:28;;;;;;;25.40;6.32;;;6.10;99.90;;;;;;4909080;28;20025;-56
2024/01/25 06:11:54;;;;;;;28.17;5.80;;;6.10;99.90;;;;;;4918276;28;20081;-57
2024/01/25 06:14:19;;;;;;;21.35;5.20;;;6.10;99.90;;;;;;4900022;28;21875;-57
2024/01/25 06:16:45;;;;;;;18.42;4.38;;;6.10;99.90;;;;;;4951598;28;20699;-56
2024/01/25 06:19:10;;;;;;;23.35;5.13;;;6.10;99.90;;;;;;4937218;28;20018;-56
2024/01/25 06:21:37;;;;;;;21.92;4.50;;;6.10;99.90;;;;;;4905244;28;20029;-58
2024/01/25 06:24:04;;;;;;;25.58;5.82;;;6.00;99.90;;;;;;4904098;28;20382;-52
2024/01/25 06:26:30;;;;;;;23.25;4.95;;;6.00;99.90;;;;;;4889475;28;20044;-58
2024/01/25 06:28:56;;;;;;;21.75;5.00;;;6.00;99.90;;;;;;4971154;28;20030;-56
2024/01/25 06:31:22;;;;;;;22.17;5.47;;;6.10;99.90;;;;;;4920673;28;20045;-60
2024/01/25 06:33:50;;;;;;;16.65;4.07;;;6.00;99.90;;;;;;4925129;28;20030;-57
2024/01/25 06:36:24;;;;;;;17.50;3.78;;;6.00;99.90;;;;;;4901837;28;20054;-58
2024/01/25 06:38:50;;;;;;;26.42;5.22;;;6.00;99.90;;;;;;4909609;28;20023;-56
2024/01/25 06:41:16;;;;;;;13.15;4.07;;;6.00;99.90;;;;;;4898725;22;20038;-50
2024/01/25 06:43:42;;;;;;;21.65;5.18;;;6.00;99.90;;;;;;4911696;28;21595;-51
2024/01/25 06:46:08;;;;;;;22.23;4.47;;;6.10;99.90;;;;;;4902490;28;20036;-52
2024/01/25 06:48:34;;;;;;;20.23;4.65;;;6.10;99.90;;;;;;4866340;28;20030;-54
2024/01/25 06:51:00;;;;;;;21.70;4.25;;;6.10;99.90;;;;;;4887805;28;20046;-54
2024/01/25 06:53:26;;;;;;;24.08;4.93;;;6.10;99.90;;;;;;4857489;28;21577;-51
2024/01/25 06:55:52;;;;;;;20.15;3.60;;;6.00;99.90;;;;;;4921089;28;20118;-53
2024/01/25 06:58:18;;;;;;;22.35;4.80;;;6.00;99.90;;;;;;4911777;28;20015;-57
2024/01/25 07:00:45;;;;;;;24.73;5.03;;;6.10;99.90;;;;;;4879759;28;20021;-56
2024/01/25 07:03:10;;;;;;;19.50;3.92;;;6.00;99.90;;;;;;4855403;28;20026;-51
2024/01/25 07:05:36;;;;;;;14.50;3.47;;;6.00;99.90;;;;;;4857999;28;20281;-52
2024/01/25 07:08:02;;;;;;;25.02;3.60;;;6.00;99.90;;;;;;4928627;28;20034;-60
2024/01/25 07:10:28;;;;;;;21.42;4.25;;;5.90;99.90;;;;;;4897431;28;20058;-55
2024/01/25 07:12:54;;;;;;;19.60;4.20;;;5.90;99.90;;;;;;4905405;28;20113;-53
2024/01/25 07:15:20;;;;;;;19.75;3.70;;;6.00;99.90;;;;;;4854028;28;20030;-53
2024/01/25 07:17:46;;;;;;;14.93;3.55;;;6.00;99.90;;;;;;4845724;28;20016;-55
2024/01/25 07:20:12;;;;;;;25.33;4.85;;;6.00;99.90;;;;;;4922209;28;20027;-54
2024/01/25 07:22:39;;;;;;;32.72;4.55;;;6.00;99.90;;;;;;4943565;28;20929;-52
2024/01/25 07:25:05;;;;;;;30.13;5.40;;;5.90;99.90;;;;;;4956773;28;20117;-52
2024/01/25 07:27:31;;;;;;;19.88;3.95;;;5.90;99.90;;;;;;4912250;28;20114;-54
2024/01/25 07:29:57;;;;;;;23.15;4.38;;;5.90;99.90;;;;;;4911009;28;20034;-56
2024/01/25 07:32:26;;;;;;;14.75;3.95;;;5.80;99.90;;;;;;4907185;28;20023;-51
2024/01/25 07:34:53;;;;;;;21.50;3.85;;;5.80;99.90;;;;;;4912252;28;20030;-54
2024/01/25 07:37:19;;;;;;;13.68;3.97;;;5.80;99.90;;;;;;4965978;28;20030;-61
2024/01/25 07:39:45;;;;;;;20.83;4.35;;;5.70;99.90;;;;;;4925624;28;20484;-49
2024/01/25 07:42:12;;;;;;;18.17;4.43;;;5.70;99.90;;;;;;4935992;28;20037;-50
2024/01/25 07:44:38;;;;;;;20.30;5.05;;;5.70;99.90;;;;;;4915038;28;20018;-49
2024/01/25 07:47:04;;;;;;;20.52;5.10;;;5.70;99.90;;;;;;4896865;28;20073;-53
2024/01/25 07:49:30;;;;;;;31.10;5.30;;;5.70;99.90;;;;;;4912530;28;20117;-52
2024/01/25 07:51:58;;;;;;;18.65;5.10;;;5.80;99.90;;;;;;4958164;28;20031;-53
2024/01/25 07:54:24;;;;;;;20.27;4.20;;;5.80;99.90;;;;;;4937951;28;20039;-53
2024/01/25 07:56:50;;;;;;;24.00;5.50;;;5.80;99.90;;;;;;4916972;28;20026;-53
2024/01/25 07:59:16;;;;;;;20.55;4.47;;;5.80;99.90;;;;;;4905594;28;20027;-52
2024/01/25 08:01:41;;;;;;;26.83;4.32;;;5.80;99.90;;;;;;4901058;28;21411;-54
2024/01/25 08:04:07;;;;;;;23.08;5.00;;;5.80;99.90;;;;;;4952596;28;20045;-51
2024/01/25 08:06:33;;;;;;;25.85;5.20;;;5.80;99.90;;;;;;4896166;28;20042;-52
2024/01/25 08:08:58;;;;;;;22.60;4.13;;;5.80;99.90;;;;;;4928980;28;20132;-55
2024/01/25 08:11:25;;;;;;;17.77;3.90;;;5.80;99.90;;;;;;4883546;28;20534;-51
2024/01/25 08:13:51;;;;;;;18.83;4.82;;;5.80;99.90;;;;;;4880112;28;20693;-52
2024/01/25 08:16:19;;;;;;;28.25;5.07;;;5.80;99.90;;;;;;4946025;28;20089;-51
2024/01/25 08:18:45;;;;;;;26.40;4.88;;;5.80;99.90;;;;;;4910052;28;20029;-54
2024/01/25 08:21:11;;;;;;;22.42;4.55;;;5.80;99.90;;;;;;4891277;28;20491;-54
2024/01/25 08:23:38;;;;;;;20.33;5.03;;;5.80;99.90;;;;;;4901058;28;20023;-55
2024/01/25 08:26:04;;;;;;;28.55;5.53;;;5.90;99.90;;;;;;4887971;28;20111;-51
2024/01/25 08:28:30;;;;;;;24.08;4.80;;;5.90;99.90;;;;;;4895845;28;20054;-59
2024/01/25 08:30:55;;;;;;;23.13;5.95;;;5.90;99.90;;;;;;4945167;28;20033;-51
2024/01/25 08:33:21;;;;;;;19.40;4.80;;;5.90;99.90;;;;;;4888907;28;22120;-53
2024/01/25 08:35:47;;;;;;;25.70;5.35;;;5.90;99.90;;;;;;4906626;28;20035;-53
2024/01/25 08:38:12;;;;;;;23.92;4.50;;;5.90;99.90;;;;;;4887365;28;20039;-51
2024/01/25 08:40:38;;;;;;;26.98;5.22;;;5.90;99.90;;;;;;4874488;28;21144;-50
2024/01/25 08:43:04;;;;;;;20.95;5.25;;;6.00;99.90;;;;;;4953161;28;20057;-50
2024/01/25 08:45:30;;;;;;;27.65;5.45;;;6.00;99.90;;;;;;4884856;28;20109;-50
2024/01/25 08:47:56;;;;;;;25.75;5.03;;;6.00;99.90;;;;;;4910863;28;20031;-53
2024/01/25 08:50:22;;;;;;;20.98;5.15;;;6.10;99.90;;;;;;4874254;28;20065;-50
2024/01/25 08:52:48;;;;;;;19.48;4.45;;;6.10;99.90;;;;;;4873299;28;20169;-52
2024/01/25 08:55:14;;;;;;;19.70;3.95;;;6.10;99.90;;;;;;4942928;28;20037;-54
2024/01/25 08:57:40;;;;;;;26.30;4.57;;;6.10;99.90;;;;;;4884728;28;20514;-58
2024/01/25 09:00:10;;;;;;;18.13;5.35;;;6.20;99.90;;;;;;4885263;28;20037;-53
2024/01/25 09:02:36;;;;;;;25.58;4.55;;;6.20;99.90;;;;;;4890726;28;20467;-52
2024/01/25 09:05:03;;;;;;;19.90;5.53;;;6.30;99.90;;;;;;4873205;28;20031;-50
2024/01/25 09:07:29;;;;;;;30.05;5.13;;;6.30;99.90;;;;;;4899836;28;20781;-59
2024/01/25 09:09:54;;;;;;;21.63;5.07;;;6.30;99.90;;;;;;4910336;28;20046;-51
2024/01/25 09:12:20;;;;;;;21.63;4.32;;;6.30;99.90;;;;;;4879077;28;21280;-52
2024/01/25 09:14:46;;;;;;;19.45;4.88;;;6.30;99.90;;;;;;4891187;28;20030;-53
2024/01/25 09:17:11;;;;;;;17.05;4.03;;;6.40;99.90;;;;;;4881424;28;20031;-53
2024/01/25 09:19:37;;;;;;;23.50;5.45;;;6.40;99.90;;;;;;4867076;28;20034;-51
2024/01/25 09:22:04;;;;;;;25.13;4.13;;;6.40;99.90;;;;;;4941215;28;20045;-52
2024/01/25 09:24:35;;;;;;;23.30;4.13;;;6.40;99.90;;;;;;4883643;28;20028;-52
2024/01/25 09:27:02;;;;;;;23.65;4.15;;;6.40;99.90;;;;;;4918942;28;20056;-59
2024/01/25 09:29:28;;;;;;;21.73;4.32;;;6.50;99.90;;;;;;4876907;28;20031;-52
2024/01/25 09:31:54;;;;;;;22.75;4.05;;;6.50;99.90;;;;;;4869646;28;20419;-52
2024/01/25 09:34:19;;;;;;;32.10;5.18;;;6.50;99.90;;;;;;4937637;28;20046;-50
2024/01/25 09:36:45;;;;;;;34.78;5.82;;;6.50;99.90;;;;;;4947738;28;20033;-53
2024/01/25 09:39:11;;;;;;;32.05;6.03;;;6.50;99.90;;;;;;4936935;28;20077;-52
2024/01/25 09:41:36;;;;;;;26.70;4.90;;;6.50;99.90;;;;;;4949487;28;20058;-53
2024/01/25 09:44:03;;;;;;;26.17;5.47;;;6.50;99.90;;;;;;4933625;28;20045;-53
2024/01/25 09:46:30;;;;;;;19.95;4.97;;;6.50;99.90;;;;;;4925893;28;20065;-54
2024/01/25 09:48:56;;;;;;;25.52;4.30;;;6.50;99.90;;;;;;4885875;28;20085;-50
2024/01/25 09:51:23;;;;;;;20.88;4.75;;;6.50;99.90;;;;;;4935115;28;20655;-50
2024/01/25 09:53:49;;;;;;;20.50;4.75;;;6.50;99.90;;;;;;4960007;28;20656;-52
2024/01/25 09:56:20;;;;;;;20.77;4.68;;;6.50;99.90;;;;;;4929236;28;20085;-51
2024/01/25 09:58:46;;;;;;;25.23;4.97;;;6.50;99.90;;;;;;4948983;28;20111;-52
2024/01/25 10:01:13;;;;;;;30.88;5.50;;;6.50;99.90;;;;;;4910830;28;20118;-50
2024/01/25 10:03:42;;;;;;;29.95;4.78;;;6.50;99.90;;;;;;4940730;28;20057;-54
2024/01/25 10:06:08;;;;;;;22.40;5.20;;;6.60;99.90;;;;;;4929116;28;20022;-53
2024/01/25 10:08:34;;;;;;;18.05;4.43;;;6.60;99.90;;;;;;4960144;28;20043;-53
2024/01/25 10:11:00;;;;;;;25.70;5.50;;;6.60;99.90;;;;;;4928264;28;20043;-55
2024/01/25 10:13:27;;;;;;;20.02;4.65;;;6.70;99.90;;;;;;4925693;28;20038;-56
2024/01/25 10:15:52;;;;;;;17.95;3.80;;;6.70;99.90;;;;;;4923144;28;20042;-51
2024/01/25 10:18:18;;;;;;;29.60;5.47;;;6.70;99.90;;;;;;4923881;28;20027;-55
2024/01/25 10:20:43;;;;;;;21.73;4.18;;;6.70;99.90;;;;;;4952027;28;20043;-55
2024/01/25 10:23:09;;;;;;;20.85;4.57;;;6.80;99.90;;;;;;4940153;28;20078;-54
2024/01/25 10:25:38;;;;;;;23.58;4.78;;;6.80;99.90;;;;;;4919626;28;20038;-55
2024/01/25 10:28:05;;;;;;;24.90;4.72;;;6.80;99.90;;;;;;4920148;28;20535;-54
2024/01/25 10:30:35;;;;;;;27.95;5.03;;;6.80;99.90;;;;;;4919137;28;20030;-56
2024/01/25 10:33:04;;;;;;;23.63;4.07;;;6.90;99.90;;;;;;4941609;28;20034;-59
2024/01/25 10:35:31;;;;;;;21.58;4.60;;;6.90;99.90;;;;;;4922095;28;20053;-52
2024/01/25 10:37:56;;;;;;;24.40;4.13;;;6.90;99.90;;;;;;4922805;28;20041;-51
2024/01/25 10:40:22;;;;;;;19.98;3.67;;;6.90;99.90;;;;;;4916515;28;20057;-52
2024/01/25 10:42:48;;;;;;;18.05;3.65;;;6.90;99.90;;;;;;4904945;28;20097;-53
2024/01/25 10:45:14;;;;;;;16.40;5.03;;;7.00;99.90;;;;;;4915821;28;20035;-53
2024/01/25 10:47:44;;;;;;;22.30;4.07;;;7.00;99.90;;;;;;4945759;28;21503;-54
2024/01/25 10:50:13;;;;;;;17.65;4.65;;;7.00;99.90;;;;;;4918556;28;20023;-52
2024/01/25 10:52:41;;;;;;;20.98;4.45;;;7.00;99.90;;;;;;4910025;28;20049;-53
2024/01/25 10:55:10;;;;;;;29.08;5.00;;;7.00;99.90;;;;;;4911646;28;20035;-52
2024/01/25 10:57:43;;;;;;;22.33;4.75;;;7.10;99.90;;;;;;4911629;28;20030;-51
2024/01/25 11:00:11;;;;;;;20.20;5.00;;;7.00;99.90;;;;;;4906067;28;20019;-53
2024/01/25 11:02:39;;;;;;;19.40;4.00;;;7.00;99.90;;;;;;4939650;28;20030;-51
2024/01/25 11:05:15;;;;;;;13.75;3.90;;;7.00;99.90;;;;;;4923448;28;20027;-52
2024/01/25 11:07:48;;;;;;;22.45;4.38;;;7.10;99.90;;;;;;4902810;28;20030;-54
2024/01/25 11:10:18;;;;;;;20.08;3.90;;;7.10;99.90;;;;;;4874830;28;20037;-55
2024/01/25 11:12:58;;;;;;;19.08;3.80;;;7.10;99.90;;;;;;4902852;28;20066;-55
2024/01/25 11:15:31;;;;;;;22.35;3.83;;;7.10;99.90;;;;;;4908137;28;21941;-51
2024/01/25 11:17:57;;;;;;;19.08;3.38;;;7.10;99.90;;;;;;4944946;28;20050;-54
2024/01/25 11:20:25;;;;;;;20.27;4.53;;;7.20;99.90;;;;;;4889202;28;20033;-59
2024/01/25 11:23:00;;;;;;;21.90;5.50;;;7.20;99.90;;;;;;4919428;28;20026;-55
2024/01/25 11:25:33;;;;;;;21.92;4.35;;;7.20;99.90;;;;;;4897385;28;20082;-53
2024/01/25 11:28:00;;;;;;;17.65;3.70;;;7.30;99.90;;;;;;4872329;28;20161;-53
2024/01/25 11:30:29;;;;;;;20.30;4.20;;;7.30;99.90;;;;;;4900460;28;20030;-52
2024/01/25 11:32:55;;;;;;;32.58;5.55;;;7.40;99.90;;;;;;4932883;28;20185;-52
2024/01/25 11:35:21;;;;;;;20.35;4.50;;;7.30;99.90;;;;;;4901145;28;20023;-59
2024/01/25 11:37:48;;;;;;;21.77;4.85;;;7.40;99.90;;;;;;4913659;28;20026;-51
2024/01/25 11:40:15;;;;;;;20.55;5.35;;;7.40;99.90;;;;;;4887672;28;20022;-51
2024/01/25 11:42:43;;;;;;;17.27;3.42;;;7.40;99.90;;;;;;4888344;28;20022;-60
2024/01/25 11:45:10;;;;;;;18.90;3.97;;;7.40;99.90;;;;;;4896032;28;20146;-59
2024/01/25 11:47:37;;;;;;;20.10;4.57;;;7.30;99.90;;;;;;4936774;28;20027;-53
2024/01/25 11:50:03;;;;;;;18.67;4.10;;;7.30;99.90;;;;;;4914919;28;20053;-51
2024/01/25 11:52:31;;;;;;;20.67;3.92;;;7.30;99.90;;;;;;4882566;28;20105;-53
2024/01/25 11:54:57;;;;;;;14.57;4.68;;;7.30;99.90;;;;;;4894914;28;20031;-52
2024/01/25 11:57:22;;;;;;;13.18;4.35;;;7.30;99.90;;;;;;4889999;28;21545;-53
2024/01/25 11:59:49;;;;;;;21.15;4.22;;;7.30;99.90;;;;;;4935364;28;20105;-55
2024/01/25 12:02:15;;;;;;;20.65;5.32;;;7.30;99.90;;;;;;4921216;28;20019;-53
2024/01/25 12:04:40;;;;;;;18.23;3.70;;;7.40;99.90;;;;;;4885844;28;20042;-53
2024/01/25 12:07:07;;;;;;;14.40;4.00;;;7.40;99.90;;;;;;4892862;28;20026;-51
2024/01/25 12:09:33;;;;;;;15.88;3.97;;;7.40;99.90;;;;;;4885311;28;20030;-53
2024/01/25 12:12:01;;;;;;;13.18;4.28;;;7.40;99.90;;;;;;4927252;28;20092;-54
2024/01/25 12:14:28;;;;;;;11.95;4.13;;;7.40;99.90;;;;;;4891466;28;20110;-50
2024/01/25 12:16:55;;;;;;;15.50;3.80;;;7.40;99.90;;;;;;4915972;28;20035;-54
2024/01/25 12:19:21;;;;;;;15.40;3.67;;;7.40;99.90;;;;;;4886639;28;20026;-53
2024/01/25 12:21:47;;;;;;;18.55;4.35;;;7.40;99.90;;;;;;4886837;28;20034;-51
2024/01/25 12:24:13;;;;;;;16.10;3.35;;;7.30;99.90;;;;;;4879635;28;20046;-53
2024/01/25 12:26:38;;;;;;;15.07;4.22;;;7.30;99.90;;;;;;4924132;28;22715;-51
2024/01/25 12:29:04;;;;;;;15.10;3.22;;;7.30;99.90;;;;;;4916359;28;20031;-54
2024/01/25 12:31:30;;;;;;;12.48;3.55;;;7.20;99.90;;;;;;4881904;28;20703;-53
2024/01/25 12:33:57;;;;;;;19.95;5.72;;;7.20;99.90;;;;;;4877923;28;20075;-53
2024/01/25 12:36:23;;;;;;;14.27;3.08;;;7.20;99.90;;;;;;4875492;28;21460;-57
2024/01/25 12:38:48;;;;;;;19.40;3.75;;;7.20;99.90;;;;;;4931677;28;20117;-53
2024/01/25 12:41:14;;;;;;;20.52;3.92;;;7.10;99.90;;;;;;4911435;28;20064;-52
2024/01/25 12:43:40;;;;;;;14.30;3.60;;;7.00;99.90;;;;;;4881026;28;20023;-59